QFA540 YSSY-YBBN
Flight info
| Callsign | QFA540 |
|---|---|
| Flight time | 1h 10m |
| Altitude | 37000 |
| Route | TESAT H252 OLSEM Y193 BANDA H252 BN |
| Aircraft | A321/M-SDE3FGHIRWY/LB1 |
Departure
| Time | 2026-04-30 03:19 |
|---|---|
| Airport | Sydney Kingsford Smith International Airport (YSSY) |
Arrival
| Time | 2026-04-30 04:29 |
|---|---|
| Airport | Brisbane International Airport (YBBN) |
| Time | Latitude | Longitude | Altitude | Speed | Heading |
|---|---|---|---|---|---|
| 2026-04-30 02:50 | -33.93153 | 151.17913 | 28 ft | 0 kts | 191° |
| 2026-04-30 03:03 | -33.93123 | 151.17920 | 29 ft | 2 kts | 191° |
| 2026-04-30 03:03 | -33.93101 | 151.17926 | 30 ft | 4 kts | 205° |
| 2026-04-30 03:04 | -33.93084 | 151.17941 | 29 ft | 4 kts | 263° |
| 2026-04-30 03:04 | -33.93085 | 151.17959 | 29 ft | 4 kts | 280° |
| 2026-04-30 03:04 | -33.93087 | 151.17972 | 29 ft | 0 kts | 280° |
| 2026-04-30 03:07 | -33.93087 | 151.17971 | 29 ft | 1 kts | 280° |
| 2026-04-30 03:07 | -33.93084 | 151.17955 | 29 ft | 3 kts | 280° |
| 2026-04-30 03:07 | -33.93079 | 151.17921 | 30 ft | 5 kts | 280° |
| 2026-04-30 03:07 | -33.93072 | 151.17872 | 30 ft | 7 kts | 280° |
| 2026-04-30 03:08 | -33.93063 | 151.17807 | 30 ft | 9 kts | 280° |
| 2026-04-30 03:08 | -33.93043 | 151.17730 | 30 ft | 11 kts | 295° |
| 2026-04-30 03:08 | -33.93013 | 151.17641 | 30 ft | 12 kts | 284° |
| 2026-04-30 03:08 | -33.93034 | 151.17546 | 30 ft | 13 kts | 219° |
| 2026-04-30 03:09 | -33.93124 | 151.17525 | 30 ft | 14 kts | 170° |
| 2026-04-30 03:09 | -33.93227 | 151.17552 | 30 ft | 16 kts | 168° |
| 2026-04-30 03:09 | -33.93343 | 151.17582 | 30 ft | 18 kts | 168° |
| 2026-04-30 03:09 | -33.93460 | 151.17585 | 30 ft | 17 kts | 182° |
| 2026-04-30 03:10 | -33.93580 | 151.17609 | 30 ft | 18 kts | 168° |
| 2026-04-30 03:10 | -33.93697 | 151.17667 | 30 ft | 18 kts | 153° |
| 2026-04-30 03:10 | -33.93805 | 151.17702 | 30 ft | 12 kts | 167° |
| 2026-04-30 03:10 | -33.93872 | 151.17763 | 30 ft | 13 kts | 146° |
| 2026-04-30 03:11 | -33.93967 | 151.17796 | 29 ft | 15 kts | 168° |
| 2026-04-30 03:11 | -33.94076 | 151.17824 | 29 ft | 17 kts | 168° |
| 2026-04-30 03:11 | -33.94192 | 151.17855 | 30 ft | 17 kts | 167° |
| 2026-04-30 03:11 | -33.94304 | 151.17883 | 30 ft | 17 kts | 168° |
| 2026-04-30 03:12 | -33.94420 | 151.17910 | 30 ft | 15 kts | 181° |
| 2026-04-30 03:12 | -33.94532 | 151.17885 | 30 ft | 17 kts | 173° |
| 2026-04-30 03:12 | -33.94648 | 151.17914 | 30 ft | 18 kts | 167° |
| 2026-04-30 03:12 | -33.94818 | 151.17958 | 30 ft | 19 kts | 168° |
| 2026-04-30 03:13 | -33.94908 | 151.17982 | 30 ft | 20 kts | 167° |
| 2026-04-30 03:13 | -33.95045 | 151.18018 | 30 ft | 19 kts | 167° |
| 2026-04-30 03:13 | -33.95097 | 151.18116 | 30 ft | 15 kts | 84° |
| 2026-04-30 03:13 | -33.95074 | 151.18247 | 30 ft | 17 kts | 77° |
| 2026-04-30 03:14 | -33.95053 | 151.18361 | 30 ft | 7 kts | 77° |
| 2026-04-30 03:14 | -33.95042 | 151.18423 | 30 ft | 9 kts | 80° |
| 2026-04-30 03:14 | -33.95076 | 151.18508 | 30 ft | 16 kts | 144° |
| 2026-04-30 03:14 | -33.95176 | 151.18609 | 30 ft | 21 kts | 137° |
| 2026-04-30 03:15 | -33.95296 | 151.18708 | 30 ft | 22 kts | 159° |
| 2026-04-30 03:15 | -33.95445 | 151.18752 | 30 ft | 23 kts | 168° |
| 2026-04-30 03:15 | -33.95603 | 151.18793 | 30 ft | 24 kts | 168° |
| 2026-04-30 03:15 | -33.95766 | 151.18836 | 30 ft | 24 kts | 167° |
| 2026-04-30 03:16 | -33.95934 | 151.18879 | 30 ft | 25 kts | 167° |
| 2026-04-30 03:16 | -33.96107 | 151.18925 | 30 ft | 26 kts | 168° |
| 2026-04-30 03:16 | -33.96285 | 151.18971 | 30 ft | 26 kts | 168° |
| 2026-04-30 03:16 | -33.96466 | 151.19017 | 30 ft | 27 kts | 168° |
| 2026-04-30 03:17 | -33.96647 | 151.19064 | 30 ft | 25 kts | 167° |
| 2026-04-30 03:17 | -33.96820 | 151.19065 | 30 ft | 25 kts | 175° |
| 2026-04-30 03:17 | -33.96994 | 151.19108 | 30 ft | 26 kts | 167° |
| 2026-04-30 03:17 | -33.97105 | 151.19152 | 30 ft | 14 kts | 139° |
| 2026-04-30 03:18 | -33.97118 | 151.19244 | 29 ft | 6 kts | 79° |
| 2026-04-30 03:18 | -33.97114 | 151.19266 | 29 ft | 4 kts | 77° |
| 2026-04-30 03:18 | -33.97102 | 151.19324 | 26 ft | 10 kts | 77° |
| 2026-04-30 03:18 | -33.97046 | 151.19368 | 27 ft | 13 kts | 353° |
| 2026-04-30 03:19 | -33.96753 | 151.19295 | 23 ft | 83 kts | 348° |
| 2026-04-30 03:19 | -33.95954 | 151.19087 | 29 ft | 149 kts | 347° |
| 2026-04-30 03:19 | -33.94846 | 151.18801 | 464 ft | 165 kts | 352° |
| 2026-04-30 03:19 | -33.93712 | 151.18738 | 1183 ft | 165 kts | 14° |
| 2026-04-30 03:20 | -33.92684 | 151.19314 | 1996 ft | 168 kts | 36° |
| 2026-04-30 03:20 | -33.91694 | 151.20191 | 2437 ft | 186 kts | 36° |
| 2026-04-30 03:20 | -33.90590 | 151.21158 | 2693 ft | 207 kts | 36° |
| 2026-04-30 03:20 | -33.89390 | 151.22209 | 2971 ft | 222 kts | 36° |
| 2026-04-30 03:21 | -33.88059 | 151.23373 | 3247 ft | 250 kts | 36° |
| 2026-04-30 03:21 | -33.86696 | 151.24566 | 4062 ft | 254 kts | 36° |
| 2026-04-30 03:21 | -33.85241 | 151.25839 | 4740 ft | 260 kts | 36° |
| 2026-04-30 03:21 | -33.83891 | 151.27282 | 5326 ft | 263 kts | 52° |
| 2026-04-30 03:22 | -33.83034 | 151.29230 | 6218 ft | 265 kts | 72° |
| 2026-04-30 03:22 | -33.82479 | 151.31365 | 7076 ft | 268 kts | 73° |
| 2026-04-30 03:22 | -33.81928 | 151.33521 | 7864 ft | 271 kts | 73° |
| 2026-04-30 03:22 | -33.81291 | 151.35670 | 8642 ft | 276 kts | 64° |
| 2026-04-30 03:23 | -33.80236 | 151.37604 | 9425 ft | 280 kts | 51° |
| 2026-04-30 03:23 | -33.79003 | 151.39430 | 10220 ft | 285 kts | 51° |
| 2026-04-30 03:23 | -33.77723 | 151.41328 | 10517 ft | 307 kts | 51° |
| 2026-04-30 03:23 | -33.76355 | 151.43353 | 10744 ft | 328 kts | 51° |
| 2026-04-30 03:24 | -33.74866 | 151.45560 | 11292 ft | 338 kts | 51° |
| 2026-04-30 03:24 | -33.73423 | 151.47699 | 11935 ft | 342 kts | 50° |
| 2026-04-30 03:24 | -33.71862 | 151.50008 | 12654 ft | 347 kts | 50° |
| 2026-04-30 03:24 | -33.70335 | 151.52274 | 13335 ft | 352 kts | 50° |
| 2026-04-30 03:25 | -33.68784 | 151.54573 | 14030 ft | 356 kts | 50° |
| 2026-04-30 03:25 | -33.67218 | 151.56889 | 14651 ft | 361 kts | 50° |
| 2026-04-30 03:25 | -33.65611 | 151.59231 | 15262 ft | 365 kts | 47° |
| 2026-04-30 03:25 | -33.63732 | 151.61300 | 15877 ft | 368 kts | 36° |
| 2026-04-30 03:26 | -33.61624 | 151.62996 | 16475 ft | 372 kts | 33° |
| 2026-04-30 03:26 | -33.59444 | 151.64700 | 17110 ft | 376 kts | 33° |
| 2026-04-30 03:26 | -33.57240 | 151.66427 | 17721 ft | 380 kts | 33° |
| 2026-04-30 03:26 | -33.55018 | 151.68168 | 18312 ft | 385 kts | 33° |
| 2026-04-30 03:27 | -33.52761 | 151.69939 | 18883 ft | 389 kts | 33° |
| 2026-04-30 03:27 | -33.50468 | 151.71679 | 19414 ft | 393 kts | 29° |
| 2026-04-30 03:27 | -33.47955 | 151.73011 | 19936 ft | 397 kts | 18° |
| 2026-04-30 03:27 | -33.45284 | 151.73907 | 20489 ft | 400 kts | 15° |
| 2026-04-30 03:28 | -33.42583 | 151.74776 | 21042 ft | 404 kts | 15° |
| 2026-04-30 03:28 | -33.39860 | 151.75654 | 21596 ft | 407 kts | 15° |
| 2026-04-30 03:28 | -33.37155 | 151.76528 | 22138 ft | 410 kts | 15° |
| 2026-04-30 03:28 | -33.34389 | 151.77423 | 22670 ft | 414 kts | 15° |
| 2026-04-30 03:29 | -33.31593 | 151.78330 | 23192 ft | 417 kts | 15° |
| 2026-04-30 03:29 | -33.28782 | 151.79243 | 23698 ft | 420 kts | 15° |
| 2026-04-30 03:29 | -33.25949 | 151.80160 | 24156 ft | 424 kts | 15° |
| 2026-04-30 03:29 | -33.23094 | 151.81080 | 24572 ft | 427 kts | 15° |
| 2026-04-30 03:30 | -33.20218 | 151.82004 | 24986 ft | 429 kts | 15° |
| 2026-04-30 03:30 | -33.17325 | 151.82935 | 25402 ft | 432 kts | 15° |
| 2026-04-30 03:30 | -33.14451 | 151.83859 | 25799 ft | 435 kts | 15° |
| 2026-04-30 03:30 | -33.11518 | 151.84804 | 26200 ft | 437 kts | 15° |
| 2026-04-30 03:31 | -33.08573 | 151.85750 | 26605 ft | 440 kts | 15° |
| 2026-04-30 03:31 | -33.05610 | 151.86702 | 26995 ft | 443 kts | 15° |
| 2026-04-30 03:31 | -33.02626 | 151.87660 | 27392 ft | 445 kts | 15° |
| 2026-04-30 03:31 | -32.99630 | 151.88620 | 27777 ft | 448 kts | 15° |
| 2026-04-30 03:32 | -32.96609 | 151.89588 | 28168 ft | 450 kts | 15° |
| 2026-04-30 03:32 | -32.93576 | 151.90561 | 28544 ft | 453 kts | 15° |
| 2026-04-30 03:32 | -32.90524 | 151.91539 | 28917 ft | 456 kts | 15° |
| 2026-04-30 03:32 | -32.87457 | 151.92522 | 29278 ft | 458 kts | 15° |
| 2026-04-30 03:33 | -32.84406 | 151.93498 | 29623 ft | 461 kts | 15° |
| 2026-04-30 03:33 | -32.81303 | 151.94491 | 29981 ft | 463 kts | 15° |
| 2026-04-30 03:33 | -32.78181 | 151.95485 | 30328 ft | 466 kts | 15° |
| 2026-04-30 03:33 | -32.75042 | 151.96483 | 30640 ft | 469 kts | 14° |
| 2026-04-30 03:34 | -32.71880 | 151.97484 | 30937 ft | 471 kts | 14° |
| 2026-04-30 03:34 | -32.68702 | 151.98491 | 31224 ft | 474 kts | 14° |
| 2026-04-30 03:34 | -32.65516 | 151.99500 | 31581 ft | 474 kts | 14° |
| 2026-04-30 03:34 | -32.62329 | 152.00511 | 32007 ft | 473 kts | 14° |
| 2026-04-30 03:35 | -32.59199 | 152.01506 | 32431 ft | 472 kts | 14° |
| 2026-04-30 03:35 | -32.56037 | 152.02516 | 32876 ft | 471 kts | 14° |
| 2026-04-30 03:35 | -32.52876 | 152.03527 | 33307 ft | 469 kts | 14° |
| 2026-04-30 03:35 | -32.49730 | 152.04529 | 33731 ft | 468 kts | 14° |
| 2026-04-30 03:36 | -32.46589 | 152.05523 | 34153 ft | 467 kts | 14° |
| 2026-04-30 03:36 | -32.43450 | 152.06517 | 34541 ft | 466 kts | 14° |
| 2026-04-30 03:36 | -32.40325 | 152.07505 | 34890 ft | 465 kts | 14° |
| 2026-04-30 03:36 | -32.37203 | 152.08491 | 35211 ft | 464 kts | 13° |
| 2026-04-30 03:37 | -32.34081 | 152.09480 | 35541 ft | 464 kts | 13° |
| 2026-04-30 03:37 | -32.30961 | 152.10467 | 35869 ft | 463 kts | 13° |
| 2026-04-30 03:37 | -32.27890 | 152.11438 | 36181 ft | 463 kts | 13° |
| 2026-04-30 03:37 | -32.24776 | 152.12419 | 36484 ft | 463 kts | 13° |
| 2026-04-30 03:38 | -32.21663 | 152.13396 | 36764 ft | 464 kts | 12° |
| 2026-04-30 03:38 | -32.18542 | 152.14375 | 37037 ft | 464 kts | 12° |
| 2026-04-30 03:38 | -32.15415 | 152.15356 | 37289 ft | 465 kts | 12° |
| 2026-04-30 03:38 | -32.12291 | 152.16339 | 37385 ft | 465 kts | 12° |
| 2026-04-30 03:39 | -32.06047 | 152.18306 | 37401 ft | 464 kts | 12° |
| 2026-04-30 03:39 | -31.99901 | 152.20233 | 37369 ft | 457 kts | 12° |
| 2026-04-30 03:40 | -31.93716 | 152.22172 | 37390 ft | 463 kts | 12° |
| 2026-04-30 03:40 | -31.87484 | 152.24121 | 37403 ft | 464 kts | 12° |
| 2026-04-30 03:41 | -31.81239 | 152.26076 | 37400 ft | 464 kts | 12° |
| 2026-04-30 03:41 | -31.75041 | 152.28008 | 37398 ft | 464 kts | 12° |
| 2026-04-30 03:42 | -31.68795 | 152.29944 | 37402 ft | 465 kts | 12° |
| 2026-04-30 03:42 | -31.62454 | 152.31914 | 37409 ft | 465 kts | 12° |
| 2026-04-30 03:43 | -31.56201 | 152.33861 | 37414 ft | 465 kts | 12° |
| 2026-04-30 03:43 | -31.49949 | 152.35810 | 37417 ft | 465 kts | 12° |
| 2026-04-30 03:44 | -31.43729 | 152.37735 | 37418 ft | 465 kts | 11° |
| 2026-04-30 03:44 | -31.37468 | 152.39658 | 37417 ft | 465 kts | 11° |
| 2026-04-30 03:45 | -31.31214 | 152.41587 | 37413 ft | 465 kts | 11° |
| 2026-04-30 03:45 | -31.24959 | 152.43516 | 37416 ft | 465 kts | 12° |
| 2026-04-30 03:46 | -31.18743 | 152.45431 | 37412 ft | 465 kts | 12° |
| 2026-04-30 03:46 | -31.12495 | 152.47358 | 37409 ft | 465 kts | 11° |
| 2026-04-30 03:47 | -31.06247 | 152.49286 | 37408 ft | 465 kts | 11° |
| 2026-04-30 03:47 | -30.99993 | 152.51201 | 37407 ft | 464 kts | 11° |
| 2026-04-30 03:48 | -30.93743 | 152.53104 | 37406 ft | 464 kts | 11° |
| 2026-04-30 03:48 | -30.87548 | 152.55004 | 37405 ft | 464 kts | 11° |
| 2026-04-30 03:49 | -30.81311 | 152.56914 | 37406 ft | 464 kts | 11° |
| 2026-04-30 03:49 | -30.75077 | 152.58955 | 37402 ft | 465 kts | 14° |
| 2026-04-30 03:50 | -30.68911 | 152.61249 | 37405 ft | 466 kts | 15° |
| 2026-04-30 03:50 | -30.62747 | 152.63571 | 37408 ft | 465 kts | 14° |
| 2026-04-30 03:51 | -30.56612 | 152.65818 | 37408 ft | 465 kts | 14° |
| 2026-04-30 03:51 | -30.50433 | 152.68040 | 37407 ft | 465 kts | 14° |
| 2026-04-30 03:52 | -30.44246 | 152.70257 | 37408 ft | 465 kts | 14° |
| 2026-04-30 03:52 | -30.38067 | 152.72483 | 37407 ft | 465 kts | 14° |
| 2026-04-30 03:53 | -30.31934 | 152.74689 | 37405 ft | 465 kts | 14° |
| 2026-04-30 03:53 | -30.25752 | 152.76920 | 37400 ft | 465 kts | 14° |
| 2026-04-30 03:54 | -30.19571 | 152.79145 | 37400 ft | 465 kts | 14° |
| 2026-04-30 03:54 | -30.13388 | 152.81362 | 37400 ft | 465 kts | 14° |
| 2026-04-30 03:55 | -30.07251 | 152.83564 | 37392 ft | 465 kts | 13° |
| 2026-04-30 03:55 | -30.01055 | 152.85781 | 37389 ft | 466 kts | 13° |
| 2026-04-30 03:56 | -29.94870 | 152.87990 | 37390 ft | 465 kts | 13° |
| 2026-04-30 03:56 | -29.88679 | 152.90190 | 37388 ft | 465 kts | 13° |
| 2026-04-30 03:57 | -29.82496 | 152.92392 | 37384 ft | 465 kts | 13° |
| 2026-04-30 03:57 | -29.76351 | 152.94588 | 37373 ft | 465 kts | 13° |
| 2026-04-30 03:58 | -29.70174 | 152.96787 | 37370 ft | 465 kts | 13° |
| 2026-04-30 03:58 | -29.63989 | 152.98978 | 37366 ft | 465 kts | 13° |
| 2026-04-30 03:59 | -29.57811 | 153.01166 | 37366 ft | 465 kts | 13° |
| 2026-04-30 03:59 | -29.51626 | 153.03352 | 37364 ft | 465 kts | 13° |
| 2026-04-30 04:00 | -29.45490 | 153.05520 | 37367 ft | 465 kts | 13° |
| 2026-04-30 04:00 | -29.39298 | 153.07714 | 37369 ft | 465 kts | 13° |
| 2026-04-30 04:01 | -29.33113 | 153.09899 | 37366 ft | 465 kts | 13° |
| 2026-04-30 04:01 | -29.26914 | 153.12075 | 37428 ft | 470 kts | 19° |
| 2026-04-30 04:02 | -29.20583 | 153.14301 | 37344 ft | 480 kts | 18° |
| 2026-04-30 04:02 | -29.14224 | 153.16539 | 37345 ft | 482 kts | 18° |
| 2026-04-30 04:03 | -29.11017 | 153.17667 | 37132 ft | 482 kts | 18° |
| 2026-04-30 04:03 | -29.07814 | 153.18793 | 36884 ft | 482 kts | 18° |
| 2026-04-30 04:03 | -29.04611 | 153.19920 | 36626 ft | 483 kts | 18° |
| 2026-04-30 04:03 | -29.01392 | 153.21050 | 36379 ft | 483 kts | 18° |
| 2026-04-30 04:04 | -28.98184 | 153.22176 | 36135 ft | 484 kts | 19° |
| 2026-04-30 04:04 | -28.94954 | 153.23310 | 35891 ft | 484 kts | 19° |
| 2026-04-30 04:04 | -28.91738 | 153.24440 | 35652 ft | 485 kts | 19° |
| 2026-04-30 04:04 | -28.88513 | 153.25570 | 35316 ft | 486 kts | 19° |
| 2026-04-30 04:05 | -28.85301 | 153.26691 | 34439 ft | 494 kts | 19° |
| 2026-04-30 04:05 | -28.81994 | 153.27842 | 33480 ft | 499 kts | 19° |
| 2026-04-30 04:05 | -28.78659 | 153.28999 | 32771 ft | 499 kts | 19° |
| 2026-04-30 04:05 | -28.75360 | 153.30142 | 32243 ft | 495 kts | 19° |
| 2026-04-30 04:06 | -28.72079 | 153.31281 | 31650 ft | 492 kts | 19° |
| 2026-04-30 04:06 | -28.68802 | 153.32422 | 31058 ft | 490 kts | 19° |
| 2026-04-30 04:06 | -28.65550 | 153.33556 | 30466 ft | 489 kts | 19° |
| 2026-04-30 04:06 | -28.62350 | 153.34670 | 29890 ft | 484 kts | 19° |
| 2026-04-30 04:07 | -28.59152 | 153.35782 | 29273 ft | 480 kts | 19° |
| 2026-04-30 04:07 | -28.55979 | 153.36885 | 28835 ft | 472 kts | 19° |
| 2026-04-30 04:07 | -28.52846 | 153.37972 | 28172 ft | 469 kts | 19° |
| 2026-04-30 04:08 | -28.46709 | 153.40104 | 27049 ft | 456 kts | 14° |
| 2026-04-30 04:08 | -28.43719 | 153.41140 | 26702 ft | 446 kts | 15° |
| 2026-04-30 04:08 | -28.40760 | 153.42167 | 26134 ft | 442 kts | 15° |
| 2026-04-30 04:08 | -28.37833 | 153.43181 | 25545 ft | 439 kts | 16° |
| 2026-04-30 04:09 | -28.34925 | 153.44185 | 25061 ft | 434 kts | 15° |
| 2026-04-30 04:09 | -28.32077 | 153.45169 | 24566 ft | 431 kts | 16° |
| 2026-04-30 04:09 | -28.29219 | 153.46155 | 24023 ft | 428 kts | 16° |
| 2026-04-30 04:09 | -28.26380 | 153.47136 | 23521 ft | 424 kts | 16° |
| 2026-04-30 04:10 | -28.23579 | 153.48103 | 23039 ft | 418 kts | 17° |
| 2026-04-30 04:10 | -28.20813 | 153.49058 | 22572 ft | 414 kts | 17° |
| 2026-04-30 04:10 | -28.18030 | 153.49793 | 22109 ft | 409 kts | 7° |
| 2026-04-30 04:10 | -28.15196 | 153.49934 | 21647 ft | 406 kts | 356° |
| 2026-04-30 04:11 | -28.12411 | 153.49498 | 21176 ft | 404 kts | 349° |
| 2026-04-30 04:11 | -28.09647 | 153.48909 | 20710 ft | 402 kts | 349° |
| 2026-04-30 04:11 | -28.06943 | 153.48340 | 20242 ft | 400 kts | 350° |
| 2026-04-30 04:11 | -28.04219 | 153.47775 | 19755 ft | 397 kts | 350° |
| 2026-04-30 04:12 | -28.01505 | 153.47217 | 19271 ft | 395 kts | 351° |
| 2026-04-30 04:12 | -27.98812 | 153.46663 | 18784 ft | 392 kts | 351° |
| 2026-04-30 04:12 | -27.96136 | 153.46111 | 18259 ft | 390 kts | 351° |
| 2026-04-30 04:12 | -27.93481 | 153.45562 | 17769 ft | 386 kts | 351° |
| 2026-04-30 04:13 | -27.90853 | 153.45018 | 17288 ft | 381 kts | 351° |
| 2026-04-30 04:13 | -27.88260 | 153.44480 | 16812 ft | 377 kts | 351° |
| 2026-04-30 04:13 | -27.85698 | 153.43951 | 16342 ft | 373 kts | 351° |
| 2026-04-30 04:13 | -27.83153 | 153.43424 | 15874 ft | 369 kts | 351° |
| 2026-04-30 04:14 | -27.80631 | 153.42904 | 15412 ft | 366 kts | 351° |
| 2026-04-30 04:14 | -27.78176 | 153.42399 | 14964 ft | 362 kts | 351° |
| 2026-04-30 04:14 | -27.75706 | 153.41892 | 14511 ft | 359 kts | 351° |
| 2026-04-30 04:14 | -27.73269 | 153.41392 | 14058 ft | 356 kts | 351° |
| 2026-04-30 04:15 | -27.70842 | 153.40892 | 13578 ft | 353 kts | 351° |
| 2026-04-30 04:15 | -27.68440 | 153.40399 | 13136 ft | 349 kts | 351° |
| 2026-04-30 04:15 | -27.66068 | 153.39912 | 12700 ft | 345 kts | 351° |
| 2026-04-30 04:15 | -27.64068 | 153.39576 | 12334 ft | 340 kts | 357° |
| 2026-04-30 04:16 | -27.61715 | 153.39584 | 11990 ft | 337 kts | 4° |
| 2026-04-30 04:16 | -27.59373 | 153.39687 | 11667 ft | 337 kts | 5° |
| 2026-04-30 04:16 | -27.57067 | 153.39782 | 11340 ft | 336 kts | 5° |
| 2026-04-30 04:16 | -27.54739 | 153.39878 | 11020 ft | 334 kts | 5° |
| 2026-04-30 04:17 | -27.52428 | 153.39978 | 10693 ft | 332 kts | 5° |
| 2026-04-30 04:17 | -27.50145 | 153.40077 | 10508 ft | 322 kts | 4° |
| 2026-04-30 04:17 | -27.47951 | 153.40173 | 10378 ft | 310 kts | 5° |
| 2026-04-30 04:17 | -27.45825 | 153.40269 | 10273 ft | 303 kts | 5° |
| 2026-04-30 04:18 | -27.43713 | 153.40366 | 10301 ft | 303 kts | 5° |
| 2026-04-30 04:18 | -27.41604 | 153.40462 | 10163 ft | 304 kts | 5° |
| 2026-04-30 04:18 | -27.39518 | 153.40557 | 9726 ft | 304 kts | 5° |
| 2026-04-30 04:18 | -27.37413 | 153.40654 | 9266 ft | 301 kts | 5° |
| 2026-04-30 04:19 | -27.35333 | 153.40748 | 8774 ft | 296 kts | 5° |
| 2026-04-30 04:19 | -27.33289 | 153.40841 | 8465 ft | 294 kts | 5° |
| 2026-04-30 04:19 | -27.31242 | 153.40936 | 8153 ft | 293 kts | 5° |
| 2026-04-30 04:19 | -27.29212 | 153.41031 | 7875 ft | 292 kts | 6° |
| 2026-04-30 04:20 | -27.27176 | 153.41127 | 7583 ft | 292 kts | 6° |
| 2026-04-30 04:20 | -27.25158 | 153.41220 | 7287 ft | 289 kts | 5° |
| 2026-04-30 04:20 | -27.23149 | 153.41311 | 6997 ft | 288 kts | 6° |
| 2026-04-30 04:20 | -27.21149 | 153.41300 | 6704 ft | 289 kts | 356° |
| 2026-04-30 04:21 | -27.19225 | 153.40729 | 6400 ft | 292 kts | 339° |
| 2026-04-30 04:21 | -27.17486 | 153.39558 | 6071 ft | 293 kts | 321° |
| 2026-04-30 04:21 | -27.15930 | 153.38089 | 5812 ft | 292 kts | 321° |
| 2026-04-30 04:21 | -27.14451 | 153.36580 | 5671 ft | 282 kts | 310° |
| 2026-04-30 04:22 | -27.13542 | 153.34697 | 5571 ft | 270 kts | 284° |
| 2026-04-30 04:22 | -27.13369 | 153.32666 | 5360 ft | 259 kts | 259° |
| 2026-04-30 04:22 | -27.13875 | 153.30781 | 5121 ft | 248 kts | 239° |
| 2026-04-30 04:22 | -27.14290 | 153.29816 | 4992 ft | 244 kts | 240° |
| 2026-04-30 04:23 | -27.15006 | 153.28133 | 4760 ft | 240 kts | 239° |
| 2026-04-30 04:23 | -27.15768 | 153.26486 | 4530 ft | 234 kts | 229° |
| 2026-04-30 04:23 | -27.16882 | 153.25223 | 4403 ft | 226 kts | 208° |
| 2026-04-30 04:23 | -27.18233 | 153.24394 | 4200 ft | 218 kts | 201° |
| 2026-04-30 04:24 | -27.19567 | 153.23638 | 3928 ft | 209 kts | 201° |
| 2026-04-30 04:24 | -27.20820 | 153.22924 | 3644 ft | 196 kts | 200° |
| 2026-04-30 04:24 | -27.21992 | 153.22256 | 3396 ft | 183 kts | 200° |
| 2026-04-30 04:24 | -27.23057 | 153.21645 | 3184 ft | 158 kts | 199° |
| 2026-04-30 04:25 | -27.23987 | 153.21116 | 2963 ft | 145 kts | 198° |
| 2026-04-30 04:25 | -27.24865 | 153.20617 | 2780 ft | 138 kts | 197° |
| 2026-04-30 04:25 | -27.25697 | 153.20145 | 2598 ft | 134 kts | 198° |
| 2026-04-30 04:25 | -27.26531 | 153.19671 | 2430 ft | 133 kts | 198° |
| 2026-04-30 04:26 | -27.27356 | 153.19201 | 2257 ft | 133 kts | 197° |
| 2026-04-30 04:26 | -27.28172 | 153.18736 | 2084 ft | 131 kts | 197° |
| 2026-04-30 04:26 | -27.28980 | 153.18276 | 1907 ft | 130 kts | 198° |
| 2026-04-30 04:26 | -27.29786 | 153.17816 | 1742 ft | 128 kts | 198° |
| 2026-04-30 04:27 | -27.30583 | 153.17361 | 1560 ft | 127 kts | 199° |
| 2026-04-30 04:27 | -27.31364 | 153.16916 | 1396 ft | 128 kts | 199° |
| 2026-04-30 04:27 | -27.32161 | 153.16461 | 1224 ft | 128 kts | 199° |
| 2026-04-30 04:27 | -27.32953 | 153.16009 | 1066 ft | 126 kts | 197° |
| 2026-04-30 04:28 | -27.33727 | 153.15567 | 887 ft | 125 kts | 199° |
| 2026-04-30 04:28 | -27.34518 | 153.15116 | 714 ft | 126 kts | 199° |
| 2026-04-30 04:28 | -27.35319 | 153.14665 | 540 ft | 131 kts | 201° |
| 2026-04-30 04:28 | -27.36125 | 153.14203 | 374 ft | 132 kts | 201° |
| 2026-04-30 04:29 | -27.36941 | 153.13728 | 195 ft | 131 kts | 202° |
| 2026-04-30 04:29 | -27.37738 | 153.13277 | 36 ft | 126 kts | 201° |
| 2026-04-30 04:29 | -27.38423 | 153.12889 | 22 ft | 87 kts | 207° |
| 2026-04-30 04:29 | -27.38798 | 153.12671 | 21 ft | 35 kts | 209° |
| 2026-04-30 04:30 | -27.38964 | 153.12512 | 21 ft | 24 kts | 229° |
| 2026-04-30 04:30 | -27.39039 | 153.12396 | 19 ft | 18 kts | 236° |
| 2026-04-30 04:30 | -27.39108 | 153.12279 | 19 ft | 16 kts | 237° |
| 2026-04-30 04:30 | -27.39118 | 153.12174 | 19 ft | 15 kts | 310° |
| 2026-04-30 04:31 | -27.39023 | 153.12177 | 18 ft | 16 kts | 24° |
| 2026-04-30 04:31 | -27.38921 | 153.12233 | 18 ft | 17 kts | 27° |
| 2026-04-30 04:31 | -27.38806 | 153.12299 | 18 ft | 19 kts | 27° |
| 2026-04-30 04:31 | -27.38689 | 153.12367 | 20 ft | 18 kts | 27° |
| 2026-04-30 04:32 | -27.38581 | 153.12409 | 18 ft | 15 kts | 348° |
| 2026-04-30 04:32 | -27.38526 | 153.12356 | 18 ft | 6 kts | 304° |
| 2026-04-30 04:32 | -27.38501 | 153.12306 | 19 ft | 9 kts | 298° |
| 2026-04-30 04:32 | -27.38492 | 153.12236 | 18 ft | 10 kts | 251° |
| 2026-04-30 04:33 | -27.38494 | 153.12186 | 20 ft | 6 kts | 288° |
| 2026-04-30 04:33 | -27.38479 | 153.12151 | 18 ft | 3 kts | 296° |
| 2026-04-30 04:33 | -27.38472 | 153.12136 | 18 ft | 0 kts | 297° |